Aérodrome :
LOGIN :

S'inscrire | Disclaimer

   EN    FR    IT 

 










Légende :    VFR   VFR Marginal   IFR   IFR Intensif   IFR Très Intensif
Visi : 
Plafond : 
>= 8 km
>= 3000ft
5 à 8 km
1000 à 3000 ft
1500m à 5 km
500 à 1000 ft
800 à 1500m
200 à 500 ft
< 800m
< 200 ft
Symboles :   Orages  Brouillard  Fortes neiges  Fortes précipitations  Vent > 20 kt
SIGMETs :   Divers  Orages  Givrage  Turbulence  Onde Orograph.  Cendres Volcan.






- Altitude de l'aérodrome : 526 ft
- Code IATA : LTN


EGGW - London Luton

DERNIER METAR :
  • 210220Z AUTO 30009KT 9999 NCD M01/M03 Q1038

METARs EXPIRÉS :
  • 210150Z AUTO 30009KT 9999 NCD M01/M03 Q1038
  • 210120Z AUTO 30008KT 9999 NCD M01/M03 Q1039
  • 210050Z AUTO 31009KT 9999 NCD M00/M03 Q1039
  • 210020Z AUTO 31009KT 9999 NCD M00/M03 Q1039
  • 202350Z AUTO 31009KT 9999 NCD 00/M03 Q1039

TAF TAF EGGW
Valide du 21 à 00h jusqu'au 22 à 00h UTC


202257Z 2100/2124 31008KT 9999 SCT035
ATIS : +44 1582 395 204



MET'MAP, la Météo Aéronautique d'un coup d'oeil ! - Copyright ORBIFLY Décembre 2007 - Disclaimer

ORBIFLY MET'MAP TEAM :

Programmation & Développement : Alexandra Zaïnal
Sur une idée originale de : Baudouin d'Aumeries
Assistance à la programmation : Marc-Olivier Méhu
Soutien technique & logistique : Manuel Goepfert

Contact : metmap@orbifly.com




SOURCES & CREDITS :

   NOAA